createdAt,value
2023-05-19T00:00:15.791Z,9.42
2023-05-19T00:01:19.096Z,9.38
2023-05-19T00:02:21.488Z,9.36
2023-05-19T00:03:24.994Z,9.34
2023-05-19T00:04:27.761Z,9.32
2023-05-19T00:05:31.130Z,9.29
2023-05-19T00:06:33.590Z,9.27
2023-05-19T00:07:37.750Z,9.26
2023-05-19T00:08:39.668Z,9.24
2023-05-19T00:09:42.829Z,9.23
2023-05-19T00:10:45.115Z,9.21
2023-05-19T00:11:48.349Z,9.19
2023-05-19T00:12:52.475Z,9.17
2023-05-19T00:13:59.852Z,9.15
2023-05-19T00:15:01.974Z,9.12
2023-05-19T00:16:06.148Z,9.10
2023-05-19T00:17:09.038Z,9.08
2023-05-19T00:18:14.163Z,9.06
2023-05-19T00:19:17.086Z,9.04
2023-05-19T00:20:19.878Z,9.01
2023-05-19T00:21:21.652Z,8.98
2023-05-19T00:22:24.359Z,8.96
2023-05-19T00:23:26.169Z,8.95
2023-05-19T00:24:29.247Z,8.94
2023-05-19T00:25:30.957Z,8.93
2023-05-19T00:26:33.910Z,8.91
2023-05-19T00:27:35.718Z,8.91
2023-05-19T00:28:38.868Z,8.88
2023-05-19T00:29:41.958Z,8.87
2023-05-19T00:30:44.677Z,8.83
2023-05-19T00:31:46.614Z,8.81
2023-05-19T00:32:52.694Z,8.78
2023-05-19T00:33:54.608Z,8.76
2023-05-19T00:34:57.323Z,8.75
2023-05-19T00:35:59.218Z,8.72
2023-05-19T00:37:02.009Z,8.67
2023-05-19T00:38:03.805Z,8.65
2023-05-19T00:39:06.515Z,8.62
2023-05-19T00:40:09.678Z,8.60
2023-05-19T00:41:15.017Z,8.58
2023-05-19T00:42:16.927Z,8.59
2023-05-19T00:43:19.610Z,8.59
2023-05-19T00:44:21.387Z,8.59
2023-05-19T00:45:25.573Z,8.60
2023-05-19T00:46:27.390Z,8.61
2023-05-19T00:47:30.174Z,8.61
2023-05-19T00:48:31.920Z,8.61
2023-05-19T00:49:34.697Z,8.62
2023-05-19T00:50:36.433Z,8.61
2023-05-19T00:51:39.120Z,8.62
2023-05-19T00:52:40.852Z,8.61
2023-05-19T00:53:48.378Z,8.61
2023-05-19T00:54:50.480Z,8.59
2023-05-19T00:55:53.272Z,8.58
2023-05-19T00:56:55.556Z,8.57
2023-05-19T00:57:58.433Z,8.54
2023-05-19T00:59:01.023Z,8.56
2023-05-19T01:00:05.849Z,8.56
2023-05-19T01:01:09.153Z,8.56
2023-05-19T01:02:11.989Z,8.54
2023-05-19T01:03:15.859Z,8.54
2023-05-19T01:04:21.673Z,8.53
2023-05-19T01:05:23.384Z,8.54
2023-05-19T01:06:27.727Z,8.55
2023-05-19T01:07:29.985Z,8.54
2023-05-19T01:08:33.652Z,8.54
2023-05-19T01:09:35.504Z,8.55
2023-05-19T01:10:38.493Z,8.55
2023-05-19T01:11:40.418Z,8.56
2023-05-19T01:12:43.238Z,8.54
2023-05-19T01:13:45.027Z,8.54
2023-05-19T01:14:47.834Z,8.53
2023-05-19T01:15:59.329Z,8.54
2023-05-19T01:17:08.166Z,8.53
2023-05-19T01:18:12.676Z,8.53
2023-05-19T01:19:32.107Z,8.53
2023-05-19T01:20:38.459Z,8.53
2023-05-19T01:22:22.823Z,8.52
2023-05-19T01:23:36.551Z,8.51
2023-05-19T01:25:15.454Z,8.51
2023-05-19T01:26:32.636Z,8.47
2023-05-19T01:27:44.591Z,8.44
2023-05-19T01:28:57.885Z,8.43
2023-05-19T01:30:19.423Z,8.43
2023-05-19T01:31:23.925Z,8.41
2023-05-19T01:32:26.819Z,8.38
2023-05-19T01:33:30.597Z,8.36
2023-05-19T01:34:36.142Z,8.34
2023-05-19T01:35:39.279Z,8.32
2023-05-19T01:36:44.759Z,8.32
2023-05-19T01:37:47.051Z,8.31
2023-05-19T01:38:52.379Z,8.32
2023-05-19T01:39:55.929Z,8.32
2023-05-19T01:40:58.780Z,8.31
2023-05-19T01:42:01.365Z,8.32
2023-05-19T01:43:04.466Z,8.30
2023-05-19T01:44:06.589Z,8.31
2023-05-19T01:45:11.367Z,8.30
2023-05-19T01:46:15.379Z,8.30
2023-05-19T01:47:18.179Z,8.30
2023-05-19T01:48:19.952Z,8.30
2023-05-19T01:49:22.716Z,8.30
2023-05-19T01:50:24.628Z,8.30
2023-05-19T01:51:27.558Z,8.30
2023-05-19T01:52:29.311Z,8.31
2023-05-19T01:53:32.081Z,8.29
2023-05-19T01:54:33.863Z,8.29
2023-05-19T01:55:37.374Z,8.29
2023-05-19T01:56:45.612Z,8.28
2023-05-19T01:57:56.332Z,8.28
2023-05-19T01:59:03.119Z,8.27
2023-05-19T02:00:11.746Z,8.27
2023-05-19T02:01:26.139Z,8.27
2023-05-19T02:02:36.742Z,8.25
2023-05-19T02:03:51.220Z,8.25
2023-05-19T02:04:57.868Z,8.22
2023-05-19T02:06:04.620Z,8.21
2023-05-19T02:07:15.756Z,8.20
2023-05-19T02:08:22.444Z,8.19
2023-05-19T02:09:29.276Z,8.17
2023-05-19T02:10:32.937Z,8.15
2023-05-19T02:11:37.678Z,8.15
2023-05-19T02:12:41.491Z,8.14
2023-05-19T02:13:44.573Z,8.13
2023-05-19T02:14:51.635Z,8.12
2023-05-19T02:15:55.870Z,8.11
2023-05-19T02:17:00.178Z,8.11
2023-05-19T02:18:04.596Z,8.10
2023-05-19T02:19:07.511Z,8.09
2023-05-19T02:20:10.099Z,8.07
2023-05-19T02:21:13.585Z,8.07
2023-05-19T02:22:15.298Z,8.06
2023-05-19T02:23:18.271Z,8.05
2023-05-19T02:24:20.240Z,8.04
2023-05-19T02:25:23.385Z,8.04
2023-05-19T02:26:26.172Z,8.04
2023-05-19T02:27:29.900Z,8.02
2023-05-19T02:28:31.590Z,8.02
2023-05-19T02:29:34.327Z,8.03
2023-05-19T02:30:36.113Z,8.03
2023-05-19T02:31:38.953Z,8.02
2023-05-19T02:32:42.079Z,8.01
2023-05-19T02:33:44.823Z,8.02
2023-05-19T02:34:46.607Z,8.02
2023-05-19T02:35:49.324Z,8.01
2023-05-19T02:36:51.629Z,7.99
2023-05-19T02:37:54.438Z,7.98
2023-05-19T02:38:56.222Z,7.96
2023-05-19T02:39:59.194Z,7.97
2023-05-19T02:41:01.154Z,7.95
2023-05-19T02:42:04.066Z,7.94
2023-05-19T02:43:06.303Z,7.93
2023-05-19T02:44:08.994Z,7.92
2023-05-19T02:45:11.598Z,7.92
2023-05-19T02:46:14.297Z,7.91
2023-05-19T02:47:16.055Z,7.90
2023-05-19T02:48:20.124Z,7.89
2023-05-19T02:49:21.901Z,7.89
2023-05-19T02:50:24.616Z,7.88
2023-05-19T02:51:26.348Z,7.85
2023-05-19T02:52:29.090Z,7.83
2023-05-19T02:53:32.588Z,7.84
2023-05-19T02:54:35.828Z,7.84
2023-05-19T02:55:37.542Z,7.83
2023-05-19T02:56:40.221Z,7.82
2023-05-19T02:57:42.329Z,7.83
2023-05-19T02:58:45.404Z,7.81
2023-05-19T02:59:47.176Z,7.79
2023-05-19T03:00:49.889Z,7.77
2023-05-19T03:01:54.958Z,7.77
2023-05-19T03:03:02.711Z,7.75
2023-05-19T03:04:06.310Z,7.72
2023-05-19T03:05:10.218Z,7.73
2023-05-19T03:06:12.641Z,7.71
2023-05-19T03:07:15.599Z,7.71
2023-05-19T03:08:17.339Z,7.71
2023-05-19T03:09:20.065Z,7.71
2023-05-19T03:10:21.805Z,7.71
2023-05-19T03:11:24.550Z,7.72
2023-05-19T03:12:26.436Z,7.74
2023-05-19T03:13:29.158Z,7.75
2023-05-19T03:14:30.874Z,7.76
2023-05-19T03:15:34.338Z,7.77
2023-05-19T03:16:36.083Z,7.79
2023-05-19T03:17:39.289Z,7.78
2023-05-19T03:18:41.684Z,7.81
2023-05-19T03:19:45.811Z,7.83
2023-05-19T03:20:47.566Z,7.83
2023-05-19T03:21:50.251Z,7.84
2023-05-19T03:22:52.108Z,7.85
2023-05-19T03:23:55.320Z,7.85
2023-05-19T03:24:58.458Z,7.87
2023-05-19T03:26:01.252Z,7.89
2023-05-19T03:27:03.031Z,7.91
2023-05-19T03:28:06.329Z,7.92
2023-05-19T03:29:08.319Z,7.94
2023-05-19T03:30:12.370Z,7.94
2023-05-19T03:31:14.110Z,7.96
2023-05-19T03:32:16.947Z,7.97
2023-05-19T03:33:18.706Z,7.97
2023-05-19T03:34:22.364Z,7.98
2023-05-19T03:35:25.495Z,7.98
2023-05-19T03:36:31.971Z,7.98
2023-05-19T03:37:33.886Z,7.98
2023-05-19T03:38:36.595Z,7.98
2023-05-19T03:39:38.305Z,7.99
2023-05-19T03:40:41.407Z,8.00
2023-05-19T03:41:43.127Z,8.00
2023-05-19T03:42:46.147Z,8.02
2023-05-19T03:43:47.853Z,8.02
2023-05-19T03:44:50.713Z,8.02
2023-05-19T03:45:53.014Z,8.03
2023-05-19T03:46:55.784Z,8.04
2023-05-19T03:47:57.544Z,8.05
2023-05-19T03:49:00.335Z,8.06
2023-05-19T03:50:02.288Z,8.07
2023-05-19T03:51:06.548Z,8.09
2023-05-19T03:52:08.238Z,8.09
2023-05-19T03:53:10.985Z,8.10
2023-05-19T03:54:12.738Z,8.10
2023-05-19T03:55:16.299Z,8.10
2023-05-19T03:56:18.301Z,8.08
2023-05-19T03:57:21.557Z,8.09
2023-05-19T03:58:24.121Z,8.08
2023-05-19T03:59:26.933Z,8.08
2023-05-19T04:00:28.709Z,8.09
2023-05-19T04:01:31.385Z,8.08
2023-05-19T04:02:33.203Z,8.09
2023-05-19T04:03:36.040Z,8.10
2023-05-19T04:04:38.135Z,8.13
2023-05-19T04:05:40.878Z,8.12
2023-05-19T04:06:43.948Z,8.14
2023-05-19T04:07:47.009Z,8.17
2023-05-19T04:08:48.799Z,8.17
2023-05-19T04:09:51.586Z,8.17
2023-05-19T04:10:53.325Z,8.16
2023-05-19T04:11:56.016Z,8.16
2023-05-19T04:12:57.761Z,8.18
2023-05-19T04:14:00.482Z,8.20
2023-05-19T04:15:02.201Z,8.21
2023-05-19T04:16:05.697Z,8.23
2023-05-19T04:17:07.600Z,8.23
2023-05-19T04:18:10.415Z,8.26
2023-05-19T04:19:12.341Z,8.27
2023-05-19T04:20:15.186Z,8.28
2023-05-19T04:21:16.893Z,8.28
2023-05-19T04:22:20.996Z,8.29
2023-05-19T04:23:22.767Z,8.30
2023-05-19T04:24:25.490Z,8.31
2023-05-19T04:25:28.203Z,8.31
2023-05-19T04:26:34.555Z,8.33
2023-05-19T04:27:38.842Z,8.33
2023-05-19T04:28:42.411Z,8.32
2023-05-19T04:29:46.100Z,8.33
2023-05-19T04:30:48.894Z,8.33
2023-05-19T04:31:50.751Z,8.33
2023-05-19T04:32:53.618Z,8.34
2023-05-19T04:33:55.446Z,8.34
2023-05-19T04:34:58.900Z,8.35
2023-05-19T04:36:05.424Z,8.35
2023-05-19T04:37:10.120Z,8.34
2023-05-19T04:38:13.640Z,8.35
2023-05-19T04:39:16.685Z,8.35
2023-05-19T04:40:21.094Z,8.37
2023-05-19T04:41:23.812Z,8.35
2023-05-19T04:42:26.190Z,8.37
2023-05-19T04:43:29.185Z,8.39
2023-05-19T04:44:31.917Z,8.38
2023-05-19T04:45:34.136Z,8.38
2023-05-19T04:46:36.884Z,8.39
2023-05-19T04:47:38.783Z,8.40
2023-05-19T04:48:41.689Z,8.40
2023-05-19T04:49:43.484Z,8.40
2023-05-19T04:50:48.849Z,8.41
2023-05-19T04:51:54.884Z,8.42
2023-05-19T04:52:59.919Z,8.43
2023-05-19T04:54:03.998Z,8.46
2023-05-19T04:55:07.695Z,8.48
2023-05-19T04:56:09.644Z,8.50
2023-05-19T04:57:12.374Z,8.51
2023-05-19T04:58:14.099Z,8.53
2023-05-19T04:59:16.807Z,8.55
2023-05-19T05:00:26.004Z,8.56
2023-05-19T05:01:31.213Z,8.59
2023-05-19T05:02:34.059Z,8.60
2023-05-19T05:03:36.915Z,8.62
2023-05-19T05:04:42.543Z,8.65
2023-05-19T05:05:45.613Z,8.66
2023-05-19T05:06:48.688Z,8.69
2023-05-19T05:07:54.042Z,8.73
2023-05-19T05:08:56.875Z,8.76
2023-05-19T05:10:01.205Z,8.78
2023-05-19T05:11:03.784Z,8.82
2023-05-19T05:12:08.054Z,8.84
2023-05-19T05:13:11.721Z,8.89
2023-05-19T05:14:15.204Z,8.89
2023-05-19T05:15:17.877Z,8.94
2023-05-19T05:16:21.189Z,8.97
2023-05-19T05:17:23.539Z,9.02
2023-05-19T05:18:27.083Z,9.06
2023-05-19T05:19:29.509Z,9.11
2023-05-19T05:20:33.652Z,9.15
2023-05-19T05:21:36.135Z,9.19
2023-05-19T05:22:39.738Z,9.24
2023-05-19T05:23:41.943Z,9.28
2023-05-19T05:24:45.286Z,9.32
2023-05-19T05:25:48.986Z,9.39
2023-05-19T05:26:52.387Z,9.43
2023-05-19T05:27:54.178Z,9.49
2023-05-19T05:28:56.858Z,9.53
2023-05-19T05:29:59.300Z,9.59
2023-05-19T05:31:02.122Z,9.65
2023-05-19T05:32:04.169Z,9.69
2023-05-19T05:33:07.354Z,9.73
2023-05-19T05:34:09.477Z,9.76
2023-05-19T05:35:12.239Z,9.79
2023-05-19T05:36:14.724Z,9.84
2023-05-19T05:37:18.072Z,9.89
2023-05-19T05:38:19.897Z,9.96
2023-05-19T05:39:22.743Z,10.02
2023-05-19T05:40:27.239Z,10.10
2023-05-19T05:41:35.253Z,10.16
2023-05-19T05:42:37.157Z,10.23
2023-05-19T05:43:40.079Z,10.27
2023-05-19T05:44:41.898Z,10.33
2023-05-19T05:45:45.400Z,10.38
2023-05-19T05:46:47.802Z,10.42
2023-05-19T05:47:51.294Z,10.44
2023-05-19T05:48:53.856Z,10.48
2023-05-19T05:49:57.211Z,10.51
2023-05-19T05:50:59.685Z,10.56
2023-05-19T05:52:06.104Z,10.60
2023-05-19T05:53:09.117Z,10.65
2023-05-19T05:54:13.437Z,10.70
2023-05-19T05:55:17.391Z,10.74
2023-05-19T05:56:20.919Z,10.75
2023-05-19T05:57:24.592Z,10.78
2023-05-19T05:58:27.748Z,10.80
2023-05-19T05:59:29.896Z,10.82
2023-05-19T06:00:34.434Z,10.84
2023-05-19T06:01:36.655Z,10.86
2023-05-19T06:02:39.628Z,10.88
2023-05-19T06:03:42.753Z,10.90
2023-05-19T06:04:45.625Z,10.92
2023-05-19T06:05:47.704Z,10.95
2023-05-19T06:06:52.568Z,11.00
2023-05-19T06:07:54.298Z,11.05
2023-05-19T06:08:57.086Z,11.10
2023-05-19T06:09:58.906Z,11.13
2023-05-19T06:11:01.761Z,11.19
2023-05-19T06:12:03.941Z,11.23
2023-05-19T06:13:08.164Z,11.32
2023-05-19T06:14:10.494Z,11.38
2023-05-19T06:15:13.403Z,11.43
2023-05-19T06:16:16.163Z,11.50
2023-05-19T06:17:17.958Z,11.55
2023-05-19T06:18:20.663Z,11.60
2023-05-19T06:19:22.427Z,11.65
2023-05-19T06:20:25.290Z,11.69
2023-05-19T06:21:27.000Z,11.76
2023-05-19T06:22:29.759Z,11.82
2023-05-19T06:23:31.555Z,11.88
2023-05-19T06:24:34.312Z,11.96
2023-05-19T06:25:36.376Z,12.02
2023-05-19T06:26:39.110Z,12.08
2023-05-19T06:27:41.004Z,12.14
2023-05-19T06:28:45.129Z,12.19
2023-05-19T06:29:47.856Z,12.23
2023-05-19T06:30:49.604Z,12.26
2023-05-19T06:31:52.347Z,12.30
2023-05-19T06:32:54.154Z,12.30
2023-05-19T06:33:56.876Z,12.35
2023-05-19T06:34:58.731Z,12.36
2023-05-19T06:36:01.501Z,12.39
2023-05-19T06:37:03.802Z,12.40
2023-05-19T06:38:06.532Z,12.43
2023-05-19T06:39:08.300Z,12.48
2023-05-19T06:40:12.559Z,12.51
2023-05-19T06:41:14.263Z,12.52
2023-05-19T06:42:16.946Z,12.55
2023-05-19T06:43:18.705Z,12.59
2023-05-19T06:44:23.880Z,12.61
2023-05-19T06:45:25.757Z,12.62
2023-05-19T06:46:28.508Z,12.64
2023-05-19T06:47:30.316Z,12.66
2023-05-19T06:48:33.152Z,12.71
2023-05-19T06:49:34.928Z,12.74
2023-05-19T06:50:37.668Z,12.80
2023-05-19T06:51:39.489Z,12.85
2023-05-19T06:52:42.627Z,12.91
2023-05-19T06:53:44.348Z,12.94
2023-05-19T06:54:47.071Z,12.98
2023-05-19T06:55:58.628Z,13.02
2023-05-19T06:57:01.374Z,13.07
2023-05-19T06:58:04.125Z,13.13
2023-05-19T06:59:06.140Z,13.21
2023-05-19T07:00:13.880Z,13.30
2023-05-19T07:01:17.058Z,13.37
2023-05-19T07:02:19.867Z,13.45
2023-05-19T07:03:21.750Z,13.53
2023-05-19T07:04:24.613Z,13.60
2023-05-19T07:05:26.463Z,13.63
2023-05-19T07:06:29.202Z,13.68
2023-05-19T07:07:30.929Z,13.74
2023-05-19T07:08:34.591Z,13.80
2023-05-19T07:09:36.428Z,13.84
2023-05-19T07:10:42.318Z,13.87
2023-05-19T07:11:44.225Z,13.91
2023-05-19T07:12:46.994Z,13.92
2023-05-19T07:13:48.755Z,13.93
2023-05-19T07:14:51.576Z,13.96
2023-05-19T07:15:55.822Z,13.98
2023-05-19T07:16:58.657Z,14.04
2023-05-19T07:18:00.576Z,14.11
2023-05-19T07:19:03.381Z,14.17
2023-05-19T07:20:10.023Z,14.26
2023-05-19T07:21:11.774Z,14.35
2023-05-19T07:22:14.930Z,14.42
2023-05-19T07:23:17.510Z,14.54
2023-05-19T07:24:21.399Z,14.64
2023-05-19T07:25:23.181Z,14.73
2023-05-19T07:26:26.362Z,14.82
2023-05-19T07:27:28.374Z,14.91
2023-05-19T07:28:31.084Z,14.96
2023-05-19T07:29:32.774Z,15.03
2023-05-19T07:30:35.715Z,15.10
2023-05-19T07:31:38.975Z,15.17
2023-05-19T07:32:41.716Z,15.25
2023-05-19T07:33:43.528Z,15.36
2023-05-19T07:34:46.337Z,15.45
2023-05-19T07:35:48.939Z,15.56
2023-05-19T07:36:52.752Z,15.63
2023-05-19T07:37:54.512Z,15.72
2023-05-19T07:38:57.260Z,15.79
2023-05-19T07:40:00.296Z,15.89
2023-05-19T07:41:02.259Z,15.95
2023-05-19T07:42:05.559Z,16.03
2023-05-19T07:43:07.384Z,16.09
2023-05-19T07:44:10.818Z,16.16
2023-05-19T07:45:13.800Z,16.24
2023-05-19T07:46:15.972Z,16.31
2023-05-19T07:47:20.256Z,16.38
2023-05-19T07:48:23.114Z,16.43
2023-05-19T07:49:26.024Z,16.50
2023-05-19T07:50:29.084Z,16.56
2023-05-19T07:51:32.734Z,16.59
2023-05-19T07:52:35.594Z,16.65
2023-05-19T07:53:37.587Z,16.71
2023-05-19T07:54:40.419Z,16.78
2023-05-19T07:55:42.425Z,16.85
2023-05-19T07:56:45.324Z,16.90
2023-05-19T07:57:47.190Z,16.93
2023-05-19T07:58:50.096Z,16.95
2023-05-19T07:59:55.677Z,16.97
2023-05-19T08:00:57.779Z,16.98
2023-05-19T08:02:00.613Z,17.00
2023-05-19T08:03:04.075Z,17.02
2023-05-19T08:04:07.692Z,17.04
2023-05-19T08:05:11.529Z,17.06
2023-05-19T08:06:14.238Z,17.08
2023-05-19T08:07:15.939Z,17.14
2023-05-19T08:08:19.598Z,17.19
2023-05-19T08:09:22.317Z,17.24
2023-05-19T08:10:24.173Z,17.29
2023-05-19T08:11:26.931Z,17.34
2023-05-19T08:12:28.733Z,17.40
2023-05-19T08:13:31.552Z,17.45
2023-05-19T08:14:34.862Z,17.49
2023-05-19T08:15:37.795Z,17.51
2023-05-19T08:16:42.131Z,17.54
2023-05-19T08:17:45.098Z,17.56
2023-05-19T08:18:49.298Z,17.56
2023-05-19T08:19:51.090Z,17.58
2023-05-19T08:20:53.811Z,17.60
2023-05-19T08:21:57.556Z,17.65
2023-05-19T08:22:59.384Z,17.65
2023-05-19T08:24:02.543Z,17.66
2023-05-19T08:25:06.259Z,17.67
2023-05-19T08:26:08.100Z,17.68
2023-05-19T08:27:10.856Z,17.71
2023-05-19T08:28:12.589Z,17.76
2023-05-19T08:29:15.286Z,17.82
2023-05-19T08:30:18.062Z,17.88
2023-05-19T08:31:21.129Z,17.90
2023-05-19T08:32:23.744Z,17.91
2023-05-19T08:33:26.486Z,17.93
2023-05-19T08:34:29.599Z,17.94
2023-05-19T08:35:32.404Z,17.94
2023-05-19T08:36:34.538Z,17.90
2023-05-19T08:37:38.648Z,17.91
2023-05-19T08:38:41.527Z,17.90
2023-05-19T08:39:43.352Z,17.83
2023-05-19T08:40:47.969Z,17.82
2023-05-19T08:41:49.887Z,17.81
2023-05-19T08:42:52.692Z,17.82
2023-05-19T08:43:55.706Z,17.84
2023-05-19T08:44:57.577Z,17.85
2023-05-19T08:46:01.100Z,17.87
2023-05-19T08:47:05.300Z,17.88
2023-05-19T08:48:08.036Z,17.88
2023-05-19T08:49:13.215Z,17.87
2023-05-19T08:50:18.967Z,17.87
2023-05-19T08:51:24.723Z,17.88
2023-05-19T08:52:34.053Z,17.88
2023-05-19T08:53:38.244Z,17.92
2023-05-19T08:54:45.555Z,17.96
2023-05-19T08:55:53.381Z,18.05
2023-05-19T08:56:57.363Z,18.13
2023-05-19T08:57:59.915Z,18.15
2023-05-19T08:59:04.121Z,18.19
2023-05-19T09:00:09.068Z,18.24
2023-05-19T09:01:12.187Z,18.25
2023-05-19T09:02:15.382Z,18.28
2023-05-19T09:03:23.504Z,18.30
2023-05-19T09:04:30.007Z,18.32
2023-05-19T09:05:33.956Z,18.36
2023-05-19T09:06:36.994Z,18.39
2023-05-19T09:07:38.828Z,18.44
2023-05-19T09:08:42.181Z,18.49
2023-05-19T09:09:44.148Z,18.56
2023-05-19T09:10:47.182Z,18.60
2023-05-19T09:11:49.061Z,18.66
2023-05-19T09:12:52.667Z,18.74
2023-05-19T09:13:54.772Z,18.77
2023-05-19T09:14:57.978Z,18.85
2023-05-19T09:16:02.069Z,18.90
2023-05-19T09:17:05.170Z,18.92
2023-05-19T09:18:09.013Z,18.98
2023-05-19T09:19:16.593Z,19.02
2023-05-19T09:20:18.564Z,19.09
2023-05-19T09:21:31.155Z,19.17
2023-05-19T09:22:35.872Z,19.26
2023-05-19T09:23:38.870Z,19.33
2023-05-19T09:24:41.681Z,19.39
2023-05-19T09:25:51.551Z,19.42
2023-05-19T09:26:59.224Z,19.43
2023-05-19T09:28:03.087Z,19.44
2023-05-19T09:29:12.624Z,19.42
2023-05-19T09:30:16.036Z,19.41
2023-05-19T09:31:18.909Z,19.38
2023-05-19T09:32:27.784Z,19.36
2023-05-19T09:33:31.085Z,19.36
2023-05-19T09:34:34.056Z,19.36
2023-05-19T09:35:36.474Z,19.42
2023-05-19T09:36:42.363Z,19.47
2023-05-19T09:37:55.902Z,19.54
2023-05-19T09:38:58.901Z,19.60
2023-05-19T09:40:01.794Z,19.65
2023-05-19T09:41:04.993Z,19.71
2023-05-19T09:42:07.849Z,19.78
2023-05-19T09:43:10.178Z,19.84
2023-05-19T09:44:23.319Z,19.93
2023-05-19T09:45:28.368Z,19.99
2023-05-19T09:46:30.417Z,20.05
2023-05-19T09:47:35.462Z,20.10
2023-05-19T09:48:38.792Z,20.15
2023-05-19T09:49:47.716Z,20.21
2023-05-19T09:50:51.787Z,20.24
2023-05-19T09:51:56.829Z,20.30
2023-05-19T09:52:58.766Z,20.37
2023-05-19T09:54:02.134Z,20.44
2023-05-19T09:55:06.794Z,20.47
2023-05-19T09:56:08.898Z,20.56
2023-05-19T09:57:11.805Z,20.64
2023-05-19T09:58:17.702Z,20.76
2023-05-19T09:59:19.526Z,20.83
2023-05-19T10:00:22.776Z,20.89
2023-05-19T10:01:24.829Z,20.97
2023-05-19T10:02:28.203Z,21.06
2023-05-19T10:03:30.206Z,21.13
2023-05-19T10:04:33.029Z,21.17
2023-05-19T10:05:35.309Z,21.22
2023-05-19T10:06:38.544Z,21.28
2023-05-19T10:07:41.764Z,21.37
2023-05-19T10:08:45.155Z,21.48
2023-05-19T10:09:49.086Z,21.61
2023-05-19T10:10:51.816Z,21.70
2023-05-19T10:11:56.493Z,21.80
2023-05-19T10:13:00.226Z,21.87
2023-05-19T10:14:02.985Z,21.92
2023-05-19T10:15:06.149Z,21.96
2023-05-19T10:16:09.806Z,22.00
2023-05-19T10:17:12.536Z,22.08
2023-05-19T10:18:17.153Z,22.14
2023-05-19T10:19:22.213Z,22.16
2023-05-19T10:20:25.085Z,22.18
2023-05-19T10:21:26.858Z,22.20
2023-05-19T10:22:29.609Z,22.21
2023-05-19T10:23:33.699Z,22.25
2023-05-19T10:24:36.448Z,22.25
2023-05-19T10:25:39.784Z,22.20
2023-05-19T10:26:44.738Z,22.10
2023-05-19T10:27:52.527Z,22.01
2023-05-19T10:28:55.492Z,21.95
2023-05-19T10:30:00.790Z,21.88
2023-05-19T10:31:06.233Z,21.83
2023-05-19T10:32:12.318Z,21.78
2023-05-19T10:33:18.065Z,21.75
2023-05-19T10:34:37.450Z,21.72
2023-05-19T10:35:55.759Z,21.67
2023-05-19T10:37:06.634Z,21.62
2023-05-19T10:38:15.823Z,21.55
2023-05-19T10:39:23.823Z,21.49
2023-05-19T10:40:29.189Z,21.43
2023-05-19T10:41:37.117Z,21.36
2023-05-19T10:42:46.829Z,21.25
2023-05-19T10:43:54.564Z,21.20
2023-05-19T10:45:05.800Z,21.11
2023-05-19T10:46:07.564Z,21.02
2023-05-19T10:47:11.992Z,20.96
2023-05-19T10:48:27.388Z,20.92
2023-05-19T10:49:29.302Z,20.85
2023-05-19T10:50:36.767Z,20.81
2023-05-19T10:51:38.554Z,20.79
2023-05-19T10:52:41.841Z,20.80
2023-05-19T10:53:46.270Z,20.82
2023-05-19T10:54:54.670Z,20.85
2023-05-19T10:55:58.997Z,20.93
2023-05-19T10:57:00.775Z,21.00
2023-05-19T10:58:03.793Z,21.09
2023-05-19T10:59:06.631Z,21.18
2023-05-19T11:00:29.695Z,21.26
2023-05-19T11:01:34.072Z,21.35
2023-05-19T11:02:41.042Z,21.46
2023-05-19T11:03:49.210Z,21.58
2023-05-19T11:04:51.784Z,21.66
2023-05-19T11:05:54.870Z,21.70
2023-05-19T11:06:57.785Z,21.72
2023-05-19T11:08:02.427Z,21.75
2023-05-19T11:09:12.510Z,21.82
2023-05-19T11:10:23.877Z,21.89
2023-05-19T11:11:26.666Z,21.98
2023-05-19T11:12:29.444Z,22.07
2023-05-19T11:13:31.398Z,22.12
2023-05-19T11:14:34.179Z,22.12
2023-05-19T11:15:36.696Z,22.10
2023-05-19T11:16:41.762Z,22.07
2023-05-19T11:17:46.305Z,22.03
2023-05-19T11:18:50.552Z,22.02
2023-05-19T11:19:54.488Z,21.99
2023-05-19T11:20:59.152Z,21.97
2023-05-19T11:22:09.355Z,21.96
2023-05-19T11:23:17.940Z,21.90
2023-05-19T11:24:40.080Z,21.74
2023-05-19T11:25:44.979Z,21.67
2023-05-19T11:26:47.732Z,21.72
2023-05-19T11:27:51.374Z,21.81
2023-05-19T11:28:54.152Z,21.92
2023-05-19T11:29:57.223Z,22.04
2023-05-19T11:31:01.100Z,22.11
2023-05-19T11:32:03.244Z,22.16
2023-05-19T11:33:06.448Z,22.27
2023-05-19T11:34:09.377Z,22.36
2023-05-19T11:35:12.656Z,22.50
2023-05-19T11:36:16.687Z,22.64
2023-05-19T11:37:18.478Z,22.77
2023-05-19T11:38:23.599Z,22.88
2023-05-19T11:39:25.903Z,23.01
2023-05-19T11:40:28.803Z,23.09
2023-05-19T11:41:32.154Z,23.16
2023-05-19T11:42:36.080Z,23.22
2023-05-19T11:43:38.825Z,23.27
2023-05-19T11:44:41.340Z,23.35
2023-05-19T11:45:44.130Z,23.39
2023-05-19T11:46:46.095Z,23.39
2023-05-19T11:48:01.106Z,23.42
2023-05-19T11:49:05.960Z,23.41
2023-05-19T11:50:09.349Z,23.41
2023-05-19T11:51:12.092Z,23.42
2023-05-19T11:52:14.048Z,23.36
2023-05-19T11:53:17.594Z,23.32
2023-05-19T11:54:19.513Z,23.34
2023-05-19T11:55:23.305Z,23.40
2023-05-19T11:56:26.241Z,23.36
2023-05-19T11:57:29.371Z,23.40
2023-05-19T11:58:32.485Z,23.48
2023-05-19T11:59:36.217Z,23.55
2023-05-19T12:00:41.288Z,23.58
2023-05-19T12:01:43.235Z,23.72
2023-05-19T12:02:46.029Z,23.89
2023-05-19T12:03:49.765Z,23.99
2023-05-19T12:04:53.445Z,24.03
2023-05-19T12:05:56.317Z,24.04
2023-05-19T12:06:58.086Z,24.07
2023-05-19T12:08:01.591Z,24.10
2023-05-19T12:09:06.427Z,24.17
2023-05-19T12:10:09.044Z,24.19
2023-05-19T12:11:11.753Z,24.12
2023-05-19T12:12:15.036Z,23.96
2023-05-19T12:13:19.163Z,23.78
2023-05-19T12:14:21.038Z,23.59
2023-05-19T12:15:24.845Z,23.49
2023-05-19T12:16:33.608Z,23.40
2023-05-19T12:17:36.496Z,23.36
2023-05-19T12:18:38.376Z,23.44
2023-05-19T12:19:41.622Z,23.54
2023-05-19T12:20:44.625Z,23.64
2023-05-19T12:21:46.434Z,23.69
2023-05-19T12:22:49.259Z,23.77
2023-05-19T12:23:53.506Z,23.85
2023-05-19T12:24:56.392Z,23.95
2023-05-19T12:26:00.544Z,24.04
2023-05-19T12:27:07.434Z,24.09
2023-05-19T12:28:12.227Z,24.13
2023-05-19T12:29:15.336Z,24.14
2023-05-19T12:30:18.215Z,24.13
2023-05-19T12:31:20.641Z,24.09
2023-05-19T12:32:25.376Z,24.04
2023-05-19T12:33:28.388Z,24.00
2023-05-19T12:34:30.500Z,23.95
2023-05-19T12:35:34.176Z,23.93
2023-05-19T12:36:41.173Z,23.91
2023-05-19T12:37:42.964Z,23.91
2023-05-19T12:38:47.757Z,23.92
2023-05-19T12:39:50.294Z,23.93
2023-05-19T12:40:53.314Z,23.93
2023-05-19T12:42:01.758Z,23.95
2023-05-19T12:43:05.407Z,23.92
2023-05-19T12:44:16.457Z,23.91
2023-05-19T12:45:21.335Z,23.91
2023-05-19T12:46:24.106Z,23.91
2023-05-19T12:47:32.029Z,23.94
2023-05-19T12:48:35.093Z,23.97
2023-05-19T12:49:36.880Z,23.98
2023-05-19T12:50:39.712Z,23.98
2023-05-19T12:51:41.505Z,23.98
2023-05-19T12:52:45.560Z,24.01
2023-05-19T12:53:48.401Z,24.04
2023-05-19T12:54:50.348Z,24.07
2023-05-19T12:55:53.828Z,24.08
2023-05-19T12:56:57.813Z,24.08
2023-05-19T12:58:00.561Z,24.05
2023-05-19T12:59:02.344Z,23.98
2023-05-19T13:00:10.590Z,23.94
2023-05-19T13:01:20.016Z,23.94
2023-05-19T13:02:22.028Z,23.92
2023-05-19T13:03:24.873Z,23.88
2023-05-19T13:04:27.256Z,23.90
2023-05-19T13:05:31.444Z,23.98
2023-05-19T13:06:34.181Z,24.10
2023-05-19T13:07:35.952Z,24.24
2023-05-19T13:08:39.710Z,24.37
2023-05-19T13:09:42.220Z,24.43
2023-05-19T13:10:46.156Z,24.50
2023-05-19T13:11:51.098Z,24.56
2023-05-19T13:12:54.508Z,24.64
2023-05-19T13:13:57.658Z,24.71
2023-05-19T13:15:00.153Z,24.77
2023-05-19T13:16:04.279Z,24.82
2023-05-19T13:17:06.398Z,24.86
2023-05-19T13:18:12.575Z,24.88
2023-05-19T13:19:24.796Z,24.89
2023-05-19T13:20:29.607Z,24.92
2023-05-19T13:21:32.449Z,24.92
2023-05-19T13:22:34.223Z,24.94
2023-05-19T13:23:37.709Z,24.97
2023-05-19T13:24:39.459Z,24.97
2023-05-19T13:25:42.563Z,25.00
2023-05-19T13:26:45.357Z,25.01
2023-05-19T13:27:47.793Z,25.02
2023-05-19T13:28:50.853Z,25.04
2023-05-19T13:29:52.617Z,25.06
2023-05-19T13:30:55.416Z,25.08
2023-05-19T13:32:01.071Z,25.08
2023-05-19T13:33:04.268Z,25.08
2023-05-19T13:34:06.039Z,25.10
2023-05-19T13:35:10.319Z,25.13
2023-05-19T13:36:12.994Z,25.15
2023-05-19T13:37:14.790Z,25.16
2023-05-19T13:38:17.609Z,25.18
2023-05-19T13:39:19.345Z,25.18
2023-05-19T13:40:23.926Z,25.17
2023-05-19T13:41:26.207Z,25.11
2023-05-19T13:42:28.992Z,25.04
2023-05-19T13:43:31.518Z,24.98
2023-05-19T13:44:34.225Z,24.92
2023-05-19T13:45:36.081Z,24.83
2023-05-19T13:48:03.384Z,24.68
2023-05-19T13:49:05.228Z,24.61
2023-05-19T13:50:08.753Z,24.53
2023-05-19T13:51:10.497Z,24.44
2023-05-19T13:51:33.016Z,24.77
2023-05-19T13:52:13.348Z,24.38